createdAt,value
2022-12-06T00:02:12.914Z,3.75
2022-12-06T00:04:57.840Z,4.20
2022-12-06T00:07:42.972Z,3.55
2022-12-06T00:10:28.372Z,3.63
2022-12-06T00:13:13.604Z,3.70
2022-12-06T00:16:06.249Z,3.63
2022-12-06T00:18:51.453Z,3.80
2022-12-06T00:21:37.343Z,3.78
2022-12-06T00:24:23.344Z,4.20
2022-12-06T00:27:08.972Z,3.78
2022-12-06T00:29:54.131Z,3.60
2022-12-06T00:32:39.150Z,3.67
2022-12-06T00:35:24.251Z,3.42
2022-12-06T00:38:09.843Z,3.55
2022-12-06T00:41:04.204Z,3.70
2022-12-06T00:43:50.367Z,3.25
2022-12-06T00:46:35.971Z,3.55
2022-12-06T00:49:21.008Z,3.15
2022-12-06T00:52:05.910Z,3.53
2022-12-06T00:54:51.206Z,3.30
2022-12-06T00:57:36.279Z,3.67
2022-12-06T01:00:21.443Z,2.85
2022-12-06T01:03:07.514Z,3.20
2022-12-06T01:05:52.621Z,2.78
2022-12-06T01:08:38.278Z,2.70
2022-12-06T01:11:24.528Z,2.63
2022-12-06T01:14:09.540Z,2.45
2022-12-06T01:16:55.001Z,3.03
2022-12-06T01:19:40.430Z,3.03
2022-12-06T01:22:25.832Z,2.85
2022-12-06T01:25:10.976Z,2.45
2022-12-06T01:27:56.134Z,2.55
2022-12-06T01:30:41.159Z,2.63
2022-12-06T01:33:26.590Z,2.78
2022-12-06T01:36:24.402Z,2.53
2022-12-06T01:39:10.608Z,2.55
2022-12-06T01:41:55.863Z,2.67
2022-12-06T01:44:51.300Z,2.88
2022-12-06T01:47:43.002Z,2.80
2022-12-06T01:50:32.726Z,2.20
2022-12-06T01:53:25.289Z,2.80
2022-12-06T01:56:11.471Z,2.50
2022-12-06T01:58:58.654Z,2.63
2022-12-06T02:01:44.252Z,2.83
2022-12-06T02:04:31.630Z,2.95
2022-12-06T02:07:16.559Z,2.88
2022-12-06T02:10:03.180Z,2.63
2022-12-06T02:12:54.503Z,2.60
2022-12-06T02:15:49.066Z,2.97
2022-12-06T02:18:42.572Z,3.00
2022-12-06T02:21:54.913Z,2.72
2022-12-06T02:24:48.974Z,3.53
2022-12-06T02:27:36.751Z,3.00
2022-12-06T02:30:38.832Z,3.17
2022-12-06T02:33:24.194Z,2.60
2022-12-06T02:36:41.643Z,2.67
2022-12-06T02:39:35.730Z,3.38
2022-12-06T02:42:27.110Z,2.78
2022-12-06T02:45:17.763Z,2.50
2022-12-06T02:48:04.617Z,2.60
2022-12-06T02:51:07.256Z,3.45
2022-12-06T02:53:56.364Z,2.95
2022-12-06T02:56:41.530Z,2.92
2022-12-06T02:59:26.840Z,2.42
2022-12-06T03:02:11.984Z,3.38
2022-12-06T03:05:12.180Z,2.60
2022-12-06T03:07:59.789Z,2.70
2022-12-06T03:10:55.998Z,3.17
2022-12-06T03:14:14.924Z,2.83
2022-12-06T03:17:16.802Z,2.63
2022-12-06T03:20:09.032Z,3.30
2022-12-06T03:23:07.112Z,3.22
2022-12-06T03:25:55.334Z,3.25
2022-12-06T03:28:42.587Z,3.25
2022-12-06T03:31:32.217Z,3.40
2022-12-06T03:37:09.315Z,2.95
2022-12-06T03:40:09.698Z,3.40
2022-12-06T03:42:55.635Z,3.15
2022-12-06T03:45:58.032Z,2.95
2022-12-06T03:48:58.571Z,3.15
2022-12-06T03:51:45.353Z,3.38
2022-12-06T03:54:30.739Z,3.50
2022-12-06T03:57:15.972Z,2.65
2022-12-06T04:00:01.648Z,3.20
2022-12-06T04:02:46.872Z,3.08
2022-12-06T04:05:32.175Z,2.60
2022-12-06T04:08:17.662Z,2.88
2022-12-06T04:11:03.924Z,2.95
2022-12-06T04:13:48.891Z,2.58
2022-12-06T04:16:52.815Z,3.25
2022-12-06T04:19:37.900Z,2.83
2022-12-06T04:22:41.702Z,3.13
2022-12-06T04:25:26.956Z,2.80
2022-12-06T04:28:30.868Z,2.80
2022-12-06T04:31:35.257Z,2.70
2022-12-06T04:34:39.439Z,2.95
2022-12-06T04:37:43.130Z,3.35
2022-12-06T04:40:28.204Z,2.80
2022-12-06T04:43:31.681Z,3.20
2022-12-06T04:46:17.740Z,3.35
2022-12-06T04:49:03.215Z,3.28
2022-12-06T04:51:48.123Z,3.17
2022-12-06T04:54:33.766Z,3.08
2022-12-06T04:57:19.025Z,3.03
2022-12-06T05:00:04.996Z,2.55
2022-12-06T05:02:50.126Z,3.10
2022-12-06T05:05:35.092Z,3.08
2022-12-06T05:08:20.225Z,3.55
2022-12-06T05:11:05.921Z,3.20
2022-12-06T05:13:51.040Z,3.03
2022-12-06T05:16:36.582Z,3.20
2022-12-06T05:19:21.588Z,3.17
2022-12-06T05:22:06.679Z,3.55
2022-12-06T05:24:51.766Z,2.95
2022-12-06T05:27:36.954Z,3.03
2022-12-06T05:30:22.168Z,3.20
2022-12-06T05:33:07.451Z,2.80
2022-12-06T05:35:52.553Z,3.42
2022-12-06T05:38:37.712Z,3.30
2022-12-06T05:41:23.572Z,3.17
2022-12-06T05:44:11.199Z,3.20
2022-12-06T05:46:56.295Z,3.35
2022-12-06T05:49:41.452Z,2.72
2022-12-06T05:52:26.818Z,3.05
2022-12-06T05:55:11.604Z,3.17
2022-12-06T05:57:56.659Z,3.08
2022-12-06T06:00:42.133Z,2.10
2022-12-06T06:03:27.144Z,2.30
2022-12-06T06:06:12.517Z,2.70
2022-12-06T06:08:57.633Z,2.55
2022-12-06T06:11:42.883Z,2.15
2022-12-06T06:14:28.247Z,2.25
2022-12-06T06:17:13.494Z,2.60
2022-12-06T06:19:58.959Z,2.85
2022-12-06T06:22:44.031Z,2.75
2022-12-06T06:25:29.369Z,3.08
2022-12-06T06:28:14.711Z,2.88
2022-12-06T06:31:03.919Z,3.08
2022-12-06T06:33:49.093Z,2.95
2022-12-06T06:36:34.282Z,3.00
2022-12-06T06:39:19.716Z,3.55
2022-12-06T06:42:05.202Z,3.38
2022-12-06T06:44:50.241Z,3.20
2022-12-06T06:47:35.612Z,2.75
2022-12-06T06:50:20.776Z,2.70
2022-12-06T06:53:06.981Z,2.63
2022-12-06T06:55:53.960Z,2.75
2022-12-06T06:58:39.360Z,2.38
2022-12-06T07:01:24.507Z,2.63
2022-12-06T07:04:09.745Z,2.22
2022-12-06T07:06:54.914Z,2.45
2022-12-06T07:09:40.092Z,2.50
2022-12-06T07:12:25.344Z,2.50
2022-12-06T07:15:11.508Z,2.53
2022-12-06T07:17:56.366Z,2.80
2022-12-06T07:20:41.574Z,2.80
2022-12-06T07:23:26.529Z,3.25
2022-12-06T07:26:13.606Z,2.63
2022-12-06T07:28:59.882Z,3.83
2022-12-06T07:31:44.664Z,2.85
2022-12-06T07:34:30.319Z,2.80
2022-12-06T07:37:18.164Z,2.55
2022-12-06T07:40:03.711Z,3.00
2022-12-06T07:43:07.500Z,3.15
2022-12-06T07:45:52.708Z,3.00
2022-12-06T07:48:38.350Z,2.72
2022-12-06T07:51:23.836Z,2.85
2022-12-06T07:54:09.183Z,2.80
2022-12-06T07:56:56.242Z,3.17
2022-12-06T07:59:41.125Z,2.38
2022-12-06T08:02:28.164Z,2.42
2022-12-06T08:05:13.517Z,2.47
2022-12-06T08:07:58.778Z,2.92
2022-12-06T08:10:43.929Z,3.03
2022-12-06T08:13:29.674Z,2.50
2022-12-06T08:16:14.803Z,2.40
2022-12-06T08:19:00.508Z,2.40
2022-12-06T08:21:45.583Z,2.63
2022-12-06T08:24:30.962Z,2.60
2022-12-06T08:27:16.076Z,2.80
2022-12-06T08:30:01.602Z,3.42
2022-12-06T08:32:48.173Z,10.18
2022-12-06T08:35:36.631Z,4.15
2022-12-06T08:38:22.076Z,3.42
2022-12-06T08:41:27.779Z,10.95
2022-12-06T08:44:14.687Z,7.07
2022-12-06T08:47:01.841Z,3.85
2022-12-06T08:49:46.873Z,3.53
2022-12-06T08:52:32.211Z,3.55
2022-12-06T08:55:17.594Z,3.05
2022-12-06T08:58:02.925Z,3.30
2022-12-06T09:00:48.157Z,3.17
2022-12-06T09:03:33.386Z,2.90
2022-12-06T09:06:19.653Z,3.22
2022-12-06T09:09:05.893Z,3.08
2022-12-06T09:11:51.337Z,2.85
2022-12-06T09:14:36.494Z,2.45
2022-12-06T09:17:21.839Z,2.40
2022-12-06T09:20:07.733Z,2.35
2022-12-06T09:22:53.172Z,2.80
2022-12-06T09:25:42.007Z,2.60
2022-12-06T09:28:26.925Z,2.70
2022-12-06T09:31:12.191Z,3.20
2022-12-06T09:33:57.452Z,2.55
2022-12-06T09:36:50.923Z,2.42
2022-12-06T09:39:46.732Z,1.98
2022-12-06T09:42:58.562Z,2.10
2022-12-06T09:46:03.559Z,2.40
2022-12-06T09:48:58.141Z,1.98
2022-12-06T09:52:03.606Z,2.00
2022-12-06T09:55:17.132Z,1.95
2022-12-06T09:58:21.435Z,1.98
2022-12-06T10:01:15.795Z,2.17
2022-12-06T10:04:39.503Z,2.00
2022-12-06T10:07:30.833Z,1.75
2022-12-06T10:10:25.302Z,1.60
2022-12-06T10:13:36.372Z,1.98
2022-12-06T10:16:37.934Z,1.70
2022-12-06T10:19:35.298Z,1.77
2022-12-06T10:22:40.377Z,1.73
2022-12-06T10:25:40.703Z,2.05
2022-12-06T10:28:47.298Z,2.00
2022-12-06T10:31:41.184Z,1.90
2022-12-06T10:34:29.013Z,3.03
2022-12-06T10:37:51.630Z,2.20
2022-12-06T10:40:39.666Z,2.35
2022-12-06T10:43:40.447Z,2.08
2022-12-06T10:46:51.272Z,2.33
2022-12-06T10:49:39.453Z,2.53
2022-12-06T10:52:33.576Z,2.58
2022-12-06T10:55:33.070Z,2.20
2022-12-06T10:58:39.238Z,2.10
2022-12-06T11:01:39.204Z,2.00
2022-12-06T11:04:37.320Z,2.00
2022-12-06T11:07:26.931Z,2.30
2022-12-06T11:10:31.683Z,2.00
2022-12-06T11:13:35.764Z,1.95
2022-12-06T11:16:30.127Z,2.30
2022-12-06T11:19:38.250Z,1.83
2022-12-06T11:22:25.966Z,1.88
2022-12-06T11:25:22.204Z,1.90
2022-12-06T11:28:50.697Z,2.30
2022-12-06T11:31:40.957Z,2.05
2022-12-06T11:34:36.443Z,1.75
2022-12-06T11:37:24.283Z,2.80
2022-12-06T11:40:15.648Z,4.88
2022-12-06T11:43:04.485Z,3.22
2022-12-06T11:45:50.066Z,7.45
2022-12-06T11:48:36.173Z,27.85
2022-12-06T11:51:25.406Z,3.88
2022-12-06T11:54:24.474Z,2.47
2022-12-06T11:57:26.766Z,2.13
2022-12-06T12:00:22.038Z,3.25
2022-12-06T12:03:32.601Z,2.17
2022-12-06T12:06:19.903Z,1.83
2022-12-06T12:09:14.375Z,2.38
2022-12-06T12:12:06.409Z,2.10
2022-12-06T12:14:58.496Z,2.20
2022-12-06T12:17:47.281Z,1.70
2022-12-06T12:20:46.467Z,1.70
2022-12-06T12:23:38.754Z,2.10
2022-12-06T12:26:33.790Z,1.88
2022-12-06T12:29:20.977Z,1.67
2022-12-06T12:32:11.580Z,1.90
2022-12-06T12:34:56.703Z,1.30
2022-12-06T12:37:41.754Z,1.70
2022-12-06T12:40:41.404Z,1.88
2022-12-06T12:43:30.425Z,1.83
2022-12-06T12:46:20.991Z,1.70
2022-12-06T12:49:24.445Z,1.60
2022-12-06T12:52:35.999Z,1.40
2022-12-06T12:55:31.062Z,2.03
2022-12-06T12:58:16.062Z,2.28
2022-12-06T13:01:05.898Z,1.77
2022-12-06T13:04:18.087Z,1.98
2022-12-06T13:07:16.948Z,1.90
2022-12-06T13:10:04.062Z,1.90
2022-12-06T13:12:55.483Z,2.08
2022-12-06T13:15:52.666Z,1.88
2022-12-06T13:18:50.391Z,1.95
2022-12-06T13:21:40.410Z,1.70
2022-12-06T13:27:16.823Z,2.00
2022-12-06T13:30:10.856Z,1.58
2022-12-06T13:33:20.491Z,2.38
2022-12-06T13:36:16.176Z,1.55
2022-12-06T13:39:35.692Z,1.60
2022-12-06T13:42:43.591Z,1.80
2022-12-06T13:45:40.745Z,1.52
2022-12-06T13:48:26.174Z,1.52
2022-12-06T13:51:32.994Z,1.38
2022-12-06T13:54:18.053Z,2.03
2022-12-06T13:57:19.790Z,1.98
2022-12-06T14:00:30.565Z,1.63
2022-12-06T14:03:21.560Z,1.00
2022-12-06T14:06:14.801Z,1.33
2022-12-06T14:09:01.886Z,1.38
2022-12-06T14:11:47.570Z,1.30
2022-12-06T14:14:33.635Z,1.48
2022-12-06T14:17:52.629Z,1.50
2022-12-06T14:20:28.969Z,2.00
2022-12-06T14:23:30.260Z,2.25
2022-12-06T14:26:23.995Z,1.48
2022-12-06T14:29:21.439Z,1.30
2022-12-06T14:32:08.633Z,1.50
2022-12-06T14:35:05.775Z,1.42
2022-12-06T14:37:52.964Z,1.73
2022-12-06T14:41:00.386Z,1.80
2022-12-06T14:43:48.861Z,1.70
2022-12-06T14:46:34.243Z,1.50
2022-12-06T14:49:40.149Z,2.05
2022-12-06T14:52:28.566Z,1.42
2022-12-06T14:55:18.148Z,1.55
2022-12-06T14:58:28.272Z,1.77
2022-12-06T15:01:28.507Z,1.48
2022-12-06T15:04:26.886Z,1.42
2022-12-06T15:07:31.302Z,1.55
2022-12-06T15:10:29.879Z,1.50
2022-12-06T15:13:16.160Z,1.40
2022-12-06T15:16:04.104Z,1.58
2022-12-06T15:18:58.900Z,1.80
2022-12-06T15:21:43.796Z,2.58
2022-12-06T15:24:29.230Z,2.38
2022-12-06T15:27:14.435Z,1.85
2022-12-06T15:29:59.979Z,2.60
2022-12-06T15:32:45.149Z,2.53
2022-12-06T15:35:30.408Z,2.63
2022-12-06T15:38:15.522Z,2.20
2022-12-06T15:41:00.683Z,1.90
2022-12-06T15:43:46.347Z,2.33
2022-12-06T15:46:32.926Z,2.88
2022-12-06T15:49:20.797Z,2.47
2022-12-06T15:52:16.645Z,3.20
2022-12-06T15:55:02.251Z,3.35
2022-12-06T15:57:47.726Z,4.78
2022-12-06T16:00:32.942Z,6.28
2022-12-06T16:03:18.511Z,3.90
2022-12-06T16:06:03.827Z,4.00
2022-12-06T16:08:49.818Z,3.53
2022-12-06T16:11:35.255Z,3.70
2022-12-06T16:14:21.495Z,4.15
2022-12-06T16:17:06.841Z,4.63
2022-12-06T16:20:10.564Z,4.28
2022-12-06T16:23:14.525Z,4.40
2022-12-06T16:26:00.145Z,3.88
2022-12-06T16:28:45.346Z,4.55
2022-12-06T16:31:33.151Z,4.40
2022-12-06T16:34:21.898Z,4.15
2022-12-06T16:37:07.122Z,4.00
2022-12-06T16:39:52.324Z,3.65
2022-12-06T16:42:37.726Z,4.00
2022-12-06T16:45:23.520Z,3.75
2022-12-06T16:48:19.714Z,4.28
2022-12-06T16:51:05.087Z,4.25
2022-12-06T16:53:50.519Z,3.95
2022-12-06T16:56:41.386Z,4.22
2022-12-06T16:59:27.154Z,3.60
2022-12-06T17:02:29.579Z,3.35
2022-12-06T17:05:21.564Z,3.70
2022-12-06T17:08:06.863Z,3.67
2022-12-06T17:11:12.260Z,4.30
2022-12-06T17:13:57.083Z,4.07
2022-12-06T17:16:43.762Z,4.20
2022-12-06T17:19:31.153Z,3.60
2022-12-06T17:22:16.833Z,3.80
2022-12-06T17:25:06.476Z,4.78
2022-12-06T17:27:53.905Z,10.70
2022-12-06T17:30:39.751Z,10.65
2022-12-06T17:33:24.666Z,19.77
2022-12-06T17:36:11.432Z,17.30
2022-12-06T17:39:01.865Z,9.32
2022-12-06T17:42:16.019Z,9.52
2022-12-06T17:45:01.299Z,29.38
2022-12-06T17:47:46.888Z,7.93
2022-12-06T17:50:32.110Z,8.60
2022-12-06T17:53:17.072Z,9.98
2022-12-06T17:56:26.920Z,8.10
2022-12-06T17:59:14.687Z,6.15
2022-12-06T18:02:17.263Z,6.00
2022-12-06T18:05:03.480Z,4.60
2022-12-06T18:07:50.779Z,7.25
2022-12-06T18:10:36.103Z,7.38
2022-12-06T18:13:21.421Z,4.50
2022-12-06T18:16:24.473Z,6.43
2022-12-06T18:19:13.357Z,5.07
2022-12-06T18:21:58.506Z,5.30
2022-12-06T18:24:44.682Z,5.50
2022-12-06T18:27:29.834Z,5.07
2022-12-06T18:30:15.197Z,4.93
2022-12-06T18:33:01.300Z,5.90
2022-12-06T18:35:46.485Z,6.90
2022-12-06T18:38:32.246Z,7.05
2022-12-06T18:41:21.760Z,7.00
2022-12-06T18:44:08.150Z,5.50
2022-12-06T18:46:53.219Z,4.95
2022-12-06T18:49:38.550Z,4.95
2022-12-06T18:52:23.826Z,5.57
2022-12-06T18:55:09.015Z,4.97
2022-12-06T18:57:54.234Z,5.65
2022-12-06T19:00:40.836Z,5.75
2022-12-06T19:03:26.187Z,6.93
2022-12-06T19:06:16.325Z,5.18
2022-12-06T19:09:05.267Z,5.72
2022-12-06T19:11:50.420Z,4.70
2022-12-06T19:14:35.645Z,7.75
2022-12-06T19:17:20.999Z,5.90
2022-12-06T19:20:06.906Z,6.45
2022-12-06T19:22:52.248Z,9.32
2022-12-06T19:25:37.462Z,6.40
2022-12-06T19:28:22.464Z,4.93
2022-12-06T19:31:10.942Z,5.43
2022-12-06T19:33:56.016Z,5.68
2022-12-06T19:36:40.979Z,3.63
2022-12-06T19:39:26.971Z,6.13
2022-12-06T19:42:30.837Z,5.97
2022-12-06T19:45:16.056Z,5.03
2022-12-06T19:48:01.388Z,5.18
2022-12-06T19:50:46.300Z,5.97
2022-12-06T19:53:35.913Z,6.47
2022-12-06T19:56:22.363Z,6.72
2022-12-06T19:59:16.370Z,6.34
2022-12-06T20:02:02.463Z,8.05
2022-12-06T20:04:48.728Z,13.45
2022-12-06T20:07:33.821Z,9.35
2022-12-06T20:10:18.959Z,42.30
2022-12-06T20:13:06.258Z,20.83
2022-12-06T20:15:51.540Z,23.50
2022-12-06T20:18:36.685Z,20.67
2022-12-06T20:21:22.173Z,13.93
2022-12-06T20:24:07.714Z,16.80
2022-12-06T20:26:54.515Z,21.27
2022-12-06T20:29:40.214Z,20.27
2022-12-06T20:32:25.380Z,13.32
2022-12-06T20:35:10.881Z,12.02
2022-12-06T20:37:56.178Z,14.50
2022-12-06T20:40:41.182Z,14.20
2022-12-06T20:43:26.217Z,12.65
2022-12-06T20:46:15.472Z,11.38
2022-12-06T20:49:05.427Z,10.43
2022-12-06T20:51:53.286Z,9.32
2022-12-06T20:54:39.129Z,10.52
2022-12-06T20:57:24.942Z,10.77
2022-12-06T21:00:11.636Z,9.57
2022-12-06T21:02:57.196Z,10.10
2022-12-06T21:05:45.264Z,11.60
2022-12-06T21:08:31.712Z,11.05
2022-12-06T21:11:23.045Z,10.18
2022-12-06T21:14:12.667Z,9.13
2022-12-06T21:16:57.749Z,10.60
2022-12-06T21:19:42.874Z,29.05
2022-12-06T21:22:28.050Z,28.20
2022-12-06T21:25:13.022Z,15.70
2022-12-06T21:27:57.878Z,13.95
2022-12-06T21:30:48.725Z,11.85
2022-12-06T21:33:34.238Z,10.13
2022-12-06T21:36:18.944Z,11.77
2022-12-06T21:39:04.659Z,11.43
2022-12-06T21:41:50.136Z,11.93
2022-12-06T21:44:35.039Z,11.73
2022-12-06T21:47:20.254Z,11.20
2022-12-06T21:50:05.781Z,10.85
2022-12-06T21:52:53.565Z,10.32
2022-12-06T21:55:39.391Z,9.70
2022-12-06T21:58:25.032Z,9.88
2022-12-06T22:01:13.416Z,9.40
2022-12-06T22:04:02.208Z,8.90
2022-12-06T22:06:47.557Z,8.68
2022-12-06T22:09:33.005Z,9.65
2022-12-06T22:12:18.332Z,9.30
2022-12-06T22:15:03.704Z,9.80
2022-12-06T22:17:48.898Z,9.93
2022-12-06T22:20:33.727Z,10.05
2022-12-06T22:23:18.938Z,9.73
2022-12-06T22:26:09.588Z,10.10
2022-12-06T22:28:55.225Z,9.23
2022-12-06T22:31:40.617Z,10.00
2022-12-06T22:34:26.065Z,9.70
2022-12-06T22:37:11.195Z,9.75
2022-12-06T22:39:56.272Z,9.85
2022-12-06T22:42:41.116Z,9.93
2022-12-06T22:45:26.376Z,9.02
2022-12-06T22:48:11.598Z,9.35
2022-12-06T22:51:10.434Z,18.15
2022-12-06T22:54:03.370Z,8.93
2022-12-06T22:56:48.952Z,9.65
2022-12-06T22:59:33.685Z,9.20
2022-12-06T23:02:18.869Z,8.85
2022-12-06T23:05:04.124Z,9.23
2022-12-06T23:07:49.476Z,10.30
2022-12-06T23:10:34.369Z,9.52
2022-12-06T23:13:19.534Z,8.30
2022-12-06T23:16:07.722Z,9.00
2022-12-06T23:18:53.047Z,12.70
2022-12-06T23:21:38.629Z,7.75
2022-12-06T23:24:23.980Z,9.90
2022-12-06T23:27:09.257Z,11.32
2022-12-06T23:29:54.661Z,8.88
2022-12-06T23:32:39.564Z,9.70
2022-12-06T23:35:24.840Z,24.52
2022-12-06T23:38:12.822Z,11.48
2022-12-06T23:41:06.446Z,17.70
2022-12-06T23:43:53.443Z,12.82
2022-12-06T23:46:39.770Z,7.85
2022-12-06T23:49:24.897Z,8.38
2022-12-06T23:52:10.010Z,8.48
2022-12-06T23:54:55.185Z,7.85
2022-12-06T23:57:40.412Z,9.07
